createdAt,value
2022-09-20T00:02:01.518Z,101349.09
2022-09-20T00:07:04.272Z,101346.00
2022-09-20T00:12:09.168Z,101351.84
2022-09-20T00:17:11.889Z,101352.56
2022-09-20T00:22:14.628Z,101360.16
2022-09-20T00:27:18.730Z,101360.75
2022-09-20T00:32:21.428Z,101359.75
2022-09-20T00:37:24.132Z,101354.06
2022-09-20T00:42:30.173Z,101359.13
2022-09-20T00:47:41.613Z,101363.06
2022-09-20T00:52:47.703Z,101364.50
2022-09-20T00:57:52.152Z,101364.09
2022-09-20T01:03:00.099Z,101368.09
2022-09-20T01:08:03.878Z,101367.69
2022-09-20T01:13:07.998Z,101368.28
2022-09-20T01:18:11.252Z,101372.28
2022-09-20T01:23:32.341Z,101371.06
2022-09-20T01:28:37.060Z,101366.09
2022-09-20T01:33:45.687Z,101370.31
2022-09-20T01:38:57.214Z,101379.72
2022-09-20T01:44:11.405Z,101381.41
2022-09-20T01:49:26.843Z,101387.28
2022-09-20T01:55:00.627Z,101393.91
2022-09-20T02:00:08.005Z,101388.03
2022-09-20T02:05:41.230Z,101386.78
2022-09-20T02:11:07.948Z,101389.09
2022-09-20T02:16:41.481Z,101397.44
2022-09-20T02:21:54.657Z,101395.41
2022-09-20T02:27:10.334Z,101398.72
2022-09-20T02:32:37.958Z,101402.84
2022-09-20T02:37:52.727Z,101408.69
2022-09-20T02:43:05.307Z,101404.13
2022-09-20T02:48:09.594Z,101411.56
2022-09-20T02:53:27.017Z,101414.84
2022-09-20T02:58:40.072Z,101418.28
2022-09-20T03:03:57.296Z,101422.41
2022-09-20T03:09:08.074Z,101420.34
2022-09-20T03:14:17.814Z,101419.25
2022-09-20T03:19:36.696Z,101425.84
2022-09-20T03:24:52.079Z,101424.72
2022-09-20T03:30:15.230Z,101427.09
2022-09-20T03:35:35.053Z,101440.81
2022-09-20T03:41:05.255Z,101435.66
2022-09-20T03:46:18.506Z,101435.66
2022-09-20T03:51:33.747Z,101441.91
2022-09-20T03:56:59.065Z,101447.28
2022-09-20T04:02:27.012Z,101449.22
2022-09-20T04:07:43.395Z,101448.78
2022-09-20T04:13:01.466Z,101455.69
2022-09-20T04:18:12.565Z,101449.66
2022-09-20T04:23:32.029Z,101459.00
2022-09-20T04:28:41.637Z,101450.81
2022-09-20T04:33:49.555Z,101459.25
2022-09-20T04:39:01.937Z,101464.16
2022-09-20T04:44:38.406Z,101469.38
2022-09-20T04:50:24.019Z,101478.75
2022-09-20T04:55:49.788Z,101474.75
2022-09-20T05:01:32.287Z,101481.59
2022-09-20T05:07:03.221Z,101489.78
2022-09-20T05:12:27.224Z,101483.25
2022-09-20T05:17:42.570Z,101491.22
2022-09-20T05:23:35.377Z,101494.78
2022-09-20T05:28:50.845Z,101494.78
2022-09-20T05:34:00.919Z,101497.53
2022-09-20T05:39:12.466Z,101508.56
2022-09-20T05:44:31.096Z,101507.88
2022-09-20T05:49:48.256Z,101514.25
2022-09-20T05:55:32.493Z,101518.03
2022-09-20T06:00:42.461Z,101520.75
2022-09-20T06:05:56.458Z,101524.16
2022-09-20T06:11:14.802Z,101539.56
2022-09-20T06:16:26.213Z,101538.31
2022-09-20T06:21:42.662Z,101539.78
2022-09-20T06:26:45.997Z,101544.59
2022-09-20T06:31:50.085Z,101543.31
2022-09-20T06:37:16.423Z,101544.97
2022-09-20T06:42:19.214Z,101546.63
2022-09-20T06:47:23.990Z,101551.38
2022-09-20T06:52:26.929Z,101561.59
2022-09-20T06:57:35.967Z,101558.53
2022-09-20T07:02:40.181Z,101565.28
2022-09-20T07:07:43.991Z,101567.94
2022-09-20T07:12:47.122Z,101568.16
2022-09-20T07:17:51.457Z,101566.53
2022-09-20T07:22:54.642Z,101570.09
2022-09-20T07:27:57.363Z,101576.56
2022-09-20T07:33:02.494Z,101576.84
2022-09-20T07:38:05.198Z,101575.25
2022-09-20T07:43:08.124Z,101584.34
2022-09-20T07:48:12.235Z,101584.53
2022-09-20T07:53:14.926Z,101590.81
2022-09-20T07:58:17.620Z,101596.66
2022-09-20T08:03:22.167Z,101605.19
2022-09-20T08:08:24.881Z,101609.41
2022-09-20T08:18:57.107Z,101612.97
2022-09-20T08:24:00.810Z,101621.94
2022-09-20T08:29:05.241Z,101633.28
2022-09-20T08:34:11.692Z,101637.19
2022-09-20T08:44:57.809Z,101642.03
2022-09-20T08:50:17.542Z,101642.31
2022-09-20T08:55:24.181Z,101639.66
2022-09-20T09:00:30.065Z,101636.91
2022-09-20T09:05:37.245Z,101633.75
2022-09-20T09:10:42.850Z,101634.34
2022-09-20T09:15:52.612Z,101638.47
2022-09-20T09:20:58.849Z,101630.53
2022-09-20T09:26:05.082Z,101637.75
2022-09-20T09:31:22.190Z,101648.81
2022-09-20T09:36:27.298Z,101645.94
2022-09-20T09:41:35.316Z,101645.72
2022-09-20T09:46:40.390Z,101657.00
2022-09-20T09:52:02.024Z,101650.81
2022-09-20T09:57:20.417Z,101653.13
2022-09-20T10:03:03.521Z,101654.88
2022-09-20T10:08:18.910Z,101648.91
2022-09-20T10:13:29.533Z,101645.91
2022-09-20T10:18:42.479Z,101644.72
2022-09-20T10:24:03.624Z,101648.81
2022-09-20T10:29:19.295Z,101660.94
2022-09-20T10:34:48.176Z,101663.59
2022-09-20T10:40:04.129Z,101659.81
2022-09-20T10:45:42.113Z,101659.41
2022-09-20T10:50:49.717Z,101654.81
2022-09-20T10:56:08.366Z,101658.75
2022-09-20T11:01:20.895Z,101672.84
2022-09-20T11:06:43.206Z,101675.63
2022-09-20T11:11:51.647Z,101683.34
2022-09-20T11:17:00.627Z,101677.13
2022-09-20T11:22:09.884Z,101699.22
2022-09-20T11:27:19.533Z,101686.09
2022-09-20T11:32:26.023Z,101694.53
2022-09-20T11:37:35.038Z,101700.41
2022-09-20T11:42:42.249Z,101712.84
2022-09-20T11:47:55.064Z,101699.41
2022-09-20T11:53:11.263Z,101699.75
2022-09-20T11:58:21.609Z,101707.59
2022-09-20T12:03:36.304Z,101718.47
2022-09-20T12:08:42.215Z,101719.72
2022-09-20T12:13:56.454Z,101718.13
2022-09-20T12:19:05.380Z,101710.81
2022-09-20T12:24:23.613Z,101713.59
2022-09-20T12:30:03.315Z,101717.34
2022-09-20T12:36:01.279Z,101719.09
2022-09-20T12:41:08.447Z,101716.56
2022-09-20T12:46:24.792Z,101723.75
2022-09-20T12:51:50.918Z,101728.41
2022-09-20T12:56:53.717Z,101724.16
2022-09-20T13:01:58.091Z,101738.16
2022-09-20T13:07:34.232Z,101738.22
2022-09-20T13:12:40.439Z,101737.19
2022-09-20T13:17:45.867Z,101732.25
2022-09-20T13:22:48.980Z,101735.16
2022-09-20T13:27:58.314Z,101729.22
2022-09-20T13:38:32.533Z,101734.38
2022-09-20T13:43:40.839Z,101751.03
2022-09-20T13:48:43.665Z,101758.25
2022-09-20T13:53:49.220Z,101768.97
2022-09-20T13:58:52.720Z,101771.97
2022-09-20T14:03:58.919Z,101765.25
2022-09-20T14:09:10.856Z,101770.13
2022-09-20T14:14:19.897Z,101771.72
2022-09-20T14:19:29.982Z,101784.81
2022-09-20T14:24:37.103Z,101779.53
2022-09-20T14:29:41.548Z,101783.75
2022-09-20T14:34:46.555Z,101786.34
2022-09-20T14:39:55.165Z,101790.34
2022-09-20T14:44:58.531Z,101793.47
2022-09-20T14:50:01.738Z,101795.28
2022-09-20T14:55:20.710Z,101797.81
2022-09-20T15:00:23.602Z,101798.25
2022-09-20T15:05:29.425Z,101810.09
2022-09-20T15:10:33.530Z,101805.00
2022-09-20T15:15:36.272Z,101805.06
2022-09-20T15:20:38.986Z,101813.94
2022-09-20T15:25:43.163Z,101819.09
2022-09-20T15:30:46.461Z,101816.97
2022-09-20T15:35:49.539Z,101808.47
2022-09-20T15:40:53.879Z,101810.91
2022-09-20T15:46:00.347Z,101824.63
2022-09-20T15:51:06.642Z,101825.38
2022-09-20T15:56:18.004Z,101834.81
2022-09-20T16:01:20.764Z,101838.59
2022-09-20T16:06:24.446Z,101838.72
2022-09-20T16:11:28.632Z,101845.94
2022-09-20T16:16:38.965Z,101846.59
2022-09-20T16:21:44.578Z,101857.09
2022-09-20T16:26:48.669Z,101858.03
2022-09-20T16:31:52.229Z,101865.34
2022-09-20T16:36:58.548Z,101864.22
2022-09-20T16:42:04.660Z,101875.38
2022-09-20T16:47:11.316Z,101885.53
2022-09-20T16:52:14.181Z,101897.00
2022-09-20T16:57:18.404Z,101890.88
2022-09-20T17:02:21.743Z,101894.91
2022-09-20T17:07:27.058Z,101904.41
2022-09-20T17:12:33.943Z,101906.78
2022-09-20T17:17:36.948Z,101914.38
2022-09-20T17:22:40.283Z,101917.75
2022-09-20T17:27:44.773Z,101922.78
2022-09-20T17:32:50.450Z,101936.53
2022-09-20T17:37:53.151Z,101938.38
2022-09-20T17:42:57.621Z,101938.94
2022-09-20T17:48:00.368Z,101946.59
2022-09-20T17:53:03.123Z,101943.78
2022-09-20T17:58:07.780Z,101947.06
2022-09-20T18:03:10.478Z,101963.47
2022-09-20T18:08:13.814Z,101972.53
2022-09-20T18:13:18.042Z,101970.25
2022-09-20T18:18:20.857Z,101976.78
2022-09-20T18:23:23.561Z,101975.66
2022-09-20T18:28:28.173Z,101976.59
2022-09-20T18:33:32.231Z,101985.03
2022-09-20T18:38:35.006Z,101994.41
2022-09-20T18:43:39.648Z,101997.38
2022-09-20T18:48:42.347Z,102003.69
2022-09-20T18:53:45.087Z,102005.47
2022-09-20T18:58:49.952Z,102016.19
2022-09-20T19:04:03.261Z,102027.16
2022-09-20T19:09:11.850Z,102027.47
2022-09-20T19:14:23.724Z,102030.38
2022-09-20T19:19:39.667Z,102029.66
2022-09-20T19:25:10.905Z,102037.78
2022-09-20T19:30:17.030Z,102045.88
2022-09-20T19:35:25.054Z,102046.88
2022-09-20T19:40:39.136Z,102048.38
2022-09-20T19:45:52.183Z,102054.97
2022-09-20T19:50:55.692Z,102052.72
2022-09-20T19:56:04.404Z,102053.09
2022-09-20T20:01:09.918Z,102062.09
2022-09-20T20:06:20.931Z,102064.41
2022-09-20T20:11:34.950Z,102061.66
2022-09-20T20:16:50.601Z,102066.63
2022-09-20T20:21:57.923Z,102068.00
2022-09-20T20:27:00.649Z,102080.75
2022-09-20T20:32:04.974Z,102087.19
2022-09-20T20:37:08.331Z,102090.63
2022-09-20T20:42:12.854Z,102090.63
2022-09-20T20:47:17.006Z,102088.81
2022-09-20T20:52:19.716Z,102095.09
2022-09-20T20:57:22.421Z,102092.56
2022-09-20T21:02:26.537Z,102095.31
2022-09-20T21:07:29.260Z,102093.56
2022-09-20T21:12:31.954Z,102088.81
2022-09-20T21:17:36.418Z,102092.03
2022-09-20T21:22:39.152Z,102104.16
2022-09-20T21:27:42.111Z,102109.78
2022-09-20T21:32:46.150Z,102115.28
2022-09-20T21:37:49.410Z,102115.06
2022-09-20T21:42:53.103Z,102121.97
2022-09-20T21:47:57.163Z,102123.78
2022-09-20T21:52:59.851Z,102119.34
2022-09-20T21:58:02.877Z,102130.75
2022-09-20T22:03:07.710Z,102137.25
2022-09-20T22:08:10.619Z,102141.28
2022-09-20T22:13:13.344Z,102145.16
2022-09-20T22:18:17.400Z,102146.13
2022-09-20T22:23:20.354Z,102140.03
2022-09-20T22:28:23.083Z,102141.88
2022-09-20T22:33:27.139Z,102139.34
2022-09-20T22:38:31.343Z,102148.88
2022-09-20T22:43:35.389Z,102144.72
2022-09-20T22:48:41.156Z,102146.66
2022-09-20T22:53:44.732Z,102148.72
2022-09-20T22:58:48.999Z,102155.13
2022-09-20T23:03:57.327Z,102149.16
2022-09-20T23:09:02.457Z,102159.00
2022-09-20T23:14:06.868Z,102156.03
2022-09-20T23:19:11.976Z,102160.72
2022-09-20T23:24:16.490Z,102162.56
2022-09-20T23:29:19.208Z,102161.03
2022-09-20T23:34:23.318Z,102165.50
2022-09-20T23:39:26.879Z,102166.63
2022-09-20T23:44:29.561Z,102180.28
2022-09-20T23:49:33.610Z,102174.84
2022-09-20T23:54:36.318Z,102178.03
2022-09-20T23:59:39.306Z,102177.66
